Time,TemperatureF,DewpointF,PressureIn,WindDirection,WindDirectionDegrees,WindSpeedMPH,WindSpeedGustMPH,Humidity,HourlyPrecipIn,Conditions,Clouds,dailyrainin,SolarRadiationWatts/m^2,SoftwareType,DateUTC
2013-09-25 00:14:00,61.0,56.0,-100.00,ENE,66,2.0,4.0,83,0.00,,,0.00,0.000000,,2013-09-25 04:14:00,
2013-09-25 00:24:00,61.0,56.0,-100.00,ENE,66,2.0,4.0,83,0.00,,,0.00,0.000000,,2013-09-25 04:24:00,
2013-09-25 00:34:00,61.0,56.0,-100.00,ENE,66,2.0,4.0,83,0.00,,,0.00,0.000000,,2013-09-25 04:34:00,
2013-09-25 00:43:00,61.0,56.0,-100.00,ENE,66,2.0,4.0,83,0.00,,,0.00,0.000000,,2013-09-25 04:43:00,
2013-09-25 01:13:00,61.0,57.0,-100.00,ENE,78,1.0,4.0,86,0.00,,,0.00,0.000000,,2013-09-25 05:13:00,
2013-09-25 01:23:00,61.0,57.0,-100.00,ENE,78,1.0,4.0,86,0.00,,,0.00,0.000000,,2013-09-25 05:23:00,
2013-09-25 01:34:00,61.0,57.0,-100.00,ENE,78,1.0,4.0,86,0.00,,,0.00,0.000000,,2013-09-25 05:34:00,
2013-09-25 01:44:00,61.0,57.0,-100.00,ENE,78,1.0,4.0,86,0.00,,,0.00,0.000000,,2013-09-25 05:44:00,
2013-09-25 02:13:00,61.0,57.0,-100.00,East,86,4.0,6.0,86,0.00,,,0.00,0.000000,,2013-09-25 06:13:00,
2013-09-25 02:23:00,61.0,57.0,-100.00,East,86,4.0,6.0,86,0.00,,,0.00,0.000000,,2013-09-25 06:23:00,
2013-09-25 02:32:00,61.0,57.0,-100.00,East,86,4.0,6.0,86,0.00,,,0.00,0.000000,,2013-09-25 06:32:00,
2013-09-25 02:42:00,61.0,57.0,-100.00,East,86,4.0,6.0,86,0.00,,,0.00,0.000000,,2013-09-25 06:42:00,
2013-09-25 03:12:00,60.0,56.0,-100.00,East,94,3.0,6.0,88,0.00,,,0.00,0.000000,,2013-09-25 07:12:00,
2013-09-25 03:22:00,60.0,56.0,-100.00,East,94,3.0,6.0,88,0.00,,,0.00,0.000000,,2013-09-25 07:22:00,
2013-09-25 03:33:00,60.0,56.0,-100.00,East,94,3.0,6.0,88,0.00,,,0.00,0.000000,,2013-09-25 07:33:00,
2013-09-25 03:42:00,60.0,56.0,-100.00,East,94,3.0,6.0,88,0.00,,,0.00,0.000000,,2013-09-25 07:42:00,
2013-09-25 04:12:00,59.0,56.0,-100.00,East,94,4.0,6.0,90,0.00,,,0.00,0.000000,,2013-09-25 08:12:00,
2013-09-25 04:22:00,59.0,56.0,-100.00,East,94,4.0,6.0,90,0.00,,,0.00,0.000000,,2013-09-25 08:22:00,
2013-09-25 04:32:00,59.0,56.0,-100.00,East,94,4.0,6.0,90,0.00,,,0.00,0.000000,,2013-09-25 08:32:00,
2013-09-25 04:42:00,59.0,56.0,-100.00,East,94,4.0,6.0,90,0.00,,,0.00,0.000000,,2013-09-25 08:42:00,
2013-09-25 06:12:00,59.0,56.0,-100.00,East,87,4.0,7.0,91,-99.99,,,0.00,0.000000,,2013-09-25 10:12:00,
2013-09-25 06:23:00,59.0,56.0,-100.00,East,87,4.0,7.0,91,-99.99,,,0.00,0.000000,,2013-09-25 10:23:00,
2013-09-25 06:32:00,59.0,56.0,-100.00,East,87,4.0,7.0,91,-99.99,,,0.00,0.000000,,2013-09-25 10:32:00,
2013-09-25 06:42:00,59.0,56.0,-100.00,East,87,4.0,7.0,91,-99.99,,,0.00,0.000000,,2013-09-25 10:42:00,
2013-09-25 07:12:00,59.0,56.0,-100.00,ENE,77,2.0,-999.0,90,0.00,,,0.00,0.000000,,2013-09-25 11:12:00,
2013-09-25 07:22:00,59.0,56.0,-100.00,ENE,77,2.0,-999.0,90,0.00,,,0.00,0.000000,,2013-09-25 11:22:00,
2013-09-25 07:33:00,59.0,56.0,-100.00,ENE,77,2.0,-999.0,90,0.00,,,0.00,0.000000,,2013-09-25 11:33:00,
2013-09-25 07:43:00,59.0,56.0,-100.00,ENE,77,2.0,-999.0,90,0.00,,,0.00,0.000000,,2013-09-25 11:43:00,
2013-09-25 08:12:00,58.0,55.0,-100.00,ENE,76,4.0,6.0,91,0.00,,,0.00,1.000000,,2013-09-25 12:12:00,
2013-09-25 08:22:00,58.0,55.0,-100.00,ENE,76,4.0,6.0,91,0.00,,,0.00,1.000000,,2013-09-25 12:22:00,
2013-09-25 08:32:00,58.0,55.0,-100.00,ENE,76,4.0,6.0,91,0.00,,,0.00,1.000000,,2013-09-25 12:32:00,
2013-09-25 08:42:00,58.0,55.0,-100.00,ENE,76,4.0,6.0,91,0.00,,,0.00,1.000000,,2013-09-25 12:42:00,
2013-09-25 09:12:00,58.0,55.0,-100.00,ENE,61,3.0,6.0,91,0.00,,,0.00,32.000000,,2013-09-25 13:12:00,
2013-09-25 09:22:00,58.0,55.0,-100.00,ENE,61,3.0,6.0,91,0.00,,,0.00,32.000000,,2013-09-25 13:22:00,
2013-09-25 09:32:00,58.0,55.0,-100.00,ENE,61,3.0,6.0,91,0.00,,,0.00,32.000000,,2013-09-25 13:32:00,
2013-09-25 09:42:00,58.0,55.0,-100.00,ENE,61,3.0,6.0,91,0.00,,,0.00,32.000000,,2013-09-25 13:42:00,
2013-09-25 10:11:00,61.0,55.0,-100.00,East,81,8.0,11.0,82,0.00,,,0.00,172.000000,,2013-09-25 14:11:00,
2013-09-25 10:22:00,61.0,55.0,-100.00,East,81,8.0,11.0,82,0.00,,,0.00,172.000000,,2013-09-25 14:22:00,
2013-09-25 10:32:00,61.0,55.0,-100.00,East,81,8.0,11.0,82,0.00,,,0.00,172.000000,,2013-09-25 14:32:00,
2013-09-25 10:43:00,61.0,55.0,-100.00,East,81,8.0,11.0,82,0.00,,,0.00,172.000000,,2013-09-25 14:43:00,
2013-09-25 11:11:00,66.0,56.0,-100.00,ENE,66,5.0,11.0,71,0.00,,,0.00,377.000000,,2013-09-25 15:11:00,
2013-09-25 11:22:00,66.0,56.0,-100.00,ENE,66,5.0,11.0,71,0.00,,,0.00,377.000000,,2013-09-25 15:22:00,
2013-09-25 11:33:00,66.0,56.0,-100.00,ENE,66,5.0,11.0,71,0.00,,,0.00,377.000000,,2013-09-25 15:33:00,
2013-09-25 11:44:00,66.0,56.0,-100.00,ENE,66,5.0,11.0,71,0.00,,,0.00,377.000000,,2013-09-25 15:44:00,
2013-09-25 12:23:00,73.0,58.0,-100.00,East,89,7.0,12.0,59,0.00,,,0.00,545.000000,,2013-09-25 16:23:00,
2013-09-25 12:33:00,73.0,58.0,-100.00,East,89,7.0,12.0,59,0.00,,,0.00,545.000000,,2013-09-25 16:33:00,
2013-09-25 12:43:00,73.0,58.0,-100.00,East,89,7.0,12.0,59,0.00,,,0.00,545.000000,,2013-09-25 16:43:00,
2013-09-25 14:13:00,77.0,59.0,-100.00,ESE,102,8.0,14.0,53,-99.99,,,0.00,763.000000,,2013-09-25 18:13:00,
2013-09-25 14:22:00,77.0,59.0,-100.00,ESE,102,8.0,14.0,53,-99.99,,,0.00,763.000000,,2013-09-25 18:22:00,
2013-09-25 14:32:00,77.0,59.0,-100.00,ESE,102,8.0,14.0,53,-99.99,,,0.00,763.000000,,2013-09-25 18:32:00,
2013-09-25 14:42:00,77.0,59.0,-100.00,ESE,102,8.0,14.0,53,-99.99,,,0.00,763.000000,,2013-09-25 18:42:00,
2013-09-25 15:11:00,78.0,56.0,-100.00,East,96,7.0,16.0,47,0.00,,,0.00,771.000000,,2013-09-25 19:11:00,
2013-09-25 15:22:00,78.0,56.0,-100.00,East,96,7.0,16.0,47,0.00,,,0.00,771.000000,,2013-09-25 19:22:00,
2013-09-25 15:32:00,78.0,56.0,-100.00,East,96,7.0,16.0,47,0.00,,,0.00,771.000000,,2013-09-25 19:32:00,
2013-09-25 15:42:00,78.0,56.0,-100.00,East,96,7.0,16.0,47,0.00,,,0.00,771.000000,,2013-09-25 19:42:00,
2013-09-25 16:12:00,75.0,55.0,-100.00,ENE,62,6.0,17.0,49,0.00,,,0.00,448.000000,,2013-09-25 20:12:00,
2013-09-25 16:23:00,75.0,55.0,-100.00,ENE,62,6.0,17.0,49,0.00,,,0.00,448.000000,,2013-09-25 20:23:00,
2013-09-25 16:32:00,75.0,55.0,-100.00,ENE,62,6.0,17.0,49,0.00,,,0.00,448.000000,,2013-09-25 20:32:00,
2013-09-25 16:43:00,75.0,55.0,-100.00,ENE,62,6.0,17.0,49,0.00,,,0.00,448.000000,,2013-09-25 20:43:00,
2013-09-25 17:12:00,77.0,56.0,-100.00,ESE,115,4.0,10.0,48,0.00,,,0.00,335.000000,,2013-09-25 21:12:00,
2013-09-25 17:22:00,77.0,56.0,-100.00,ESE,115,4.0,10.0,48,0.00,,,0.00,335.000000,,2013-09-25 21:22:00,
2013-09-25 17:34:00,77.0,56.0,-100.00,ESE,115,4.0,10.0,48,0.00,,,0.00,335.000000,,2013-09-25 21:34:00,
2013-09-25 17:44:00,77.0,56.0,-100.00,ESE,115,4.0,10.0,48,0.00,,,0.00,335.000000,,2013-09-25 21:44:00,
2013-09-25 18:14:00,76.0,54.0,-100.00,East,79,5.0,12.0,47,0.00,,,0.00,417.000000,,2013-09-25 22:14:00,
2013-09-25 18:23:00,76.0,54.0,-100.00,East,79,5.0,12.0,47,0.00,,,0.00,417.000000,,2013-09-25 22:23:00,
2013-09-25 18:33:00,76.0,54.0,-100.00,East,79,5.0,12.0,47,0.00,,,0.00,417.000000,,2013-09-25 22:33:00,
2013-09-25 18:42:00,76.0,54.0,-100.00,East,79,5.0,12.0,47,0.00,,,0.00,417.000000,,2013-09-25 22:42:00,
2013-09-25 19:12:00,75.0,55.0,-100.00,East,86,4.0,13.0,50,0.00,,,0.00,207.000000,,2013-09-25 23:12:00,
2013-09-25 19:23:00,75.0,55.0,-100.00,East,86,4.0,13.0,50,0.00,,,0.00,207.000000,,2013-09-25 23:23:00,
2013-09-25 19:34:00,75.0,55.0,-100.00,East,86,4.0,13.0,50,0.00,,,0.00,207.000000,,2013-09-25 23:34:00,
2013-09-25 19:42:00,75.0,55.0,-100.00,East,86,4.0,13.0,50,0.00,,,0.00,207.000000,,2013-09-25 23:42:00,
2013-09-25 20:42:00,65.0,58.0,-100.00,WNW,290,0.0,6.0,79,0.00,,,0.00,37.000000,,2013-09-26 00:42:00,
2013-09-25 21:23:00,60.0,57.0,-100.00,NNW,346,0.0,0.0,91,0.00,,,0.00,0.000000,,2013-09-26 01:23:00,
2013-09-25 21:32:00,60.0,57.0,-100.00,NNW,346,0.0,0.0,91,0.00,,,0.00,0.000000,,2013-09-26 01:32:00,
2013-09-25 21:42:00,60.0,57.0,-100.00,NNW,346,0.0,0.0,91,0.00,,,0.00,0.000000,,2013-09-26 01:42:00,
2013-09-25 22:13:00,58.0,57.0,-100.00,NW,319,0.0,5.0,96,0.00,,,0.00,0.000000,,2013-09-26 02:13:00,
2013-09-25 22:22:00,58.0,57.0,-100.00,NW,319,0.0,5.0,96,0.00,,,0.00,0.000000,,2013-09-26 02:22:00,
2013-09-25 22:33:00,58.0,57.0,-100.00,NW,319,0.0,5.0,96,0.00,,,0.00,0.000000,,2013-09-26 02:33:00,
2013-09-25 22:42:00,58.0,57.0,-100.00,NW,319,0.0,5.0,96,0.00,,,0.00,0.000000,,2013-09-26 02:42:00,
2013-09-25 23:12:00,56.0,55.0,-100.00,NNE,31,1.0,4.0,98,0.00,,,0.00,0.000000,,2013-09-26 03:12:00,
2013-09-25 23:23:00,56.0,55.0,-100.00,NNE,31,1.0,4.0,98,0.00,,,0.00,0.000000,,2013-09-26 03:23:00,
2013-09-25 23:34:00,56.0,55.0,-100.00,NNE,31,1.0,4.0,98,0.00,,,0.00,0.000000,,2013-09-26 03:34:00,
2013-09-25 23:44:00,56.0,55.0,-100.00,NNE,31,1.0,4.0,98,0.00,,,0.00,0.000000,,2013-09-26 03:44:00,